sensor_id;sensor_type;location;lat;lon;timestamp;P1;durP1;ratioP1;P2;durP2;ratioP2
56269;SDS011;42176;43.240;27.880;2023-11-25T00:01:15;1.07;;;1.00;;
56269;SDS011;42176;43.240;27.880;2023-11-25T00:03:17;1.63;;;1.53;;
56269;SDS011;42176;43.240;27.880;2023-11-25T00:05:17;2.83;;;1.63;;
56269;SDS011;42176;43.240;27.880;2023-11-25T00:07:19;2.50;;;1.70;;
56269;SDS011;42176;43.240;27.880;2023-11-25T00:09:20;4.90;;;1.40;;
56269;SDS011;42176;43.240;27.880;2023-11-25T00:11:21;1.90;;;1.50;;
56269;SDS011;42176;43.240;27.880;2023-11-25T00:13:22;1.63;;;1.50;;
56269;SDS011;42176;43.240;27.880;2023-11-25T00:15:22;2.20;;;1.63;;
56269;SDS011;42176;43.240;27.880;2023-11-25T00:17:26;3.05;;;2.55;;
56269;SDS011;42176;43.240;27.880;2023-11-25T00:19:28;5.57;;;1.60;;
56269;SDS011;42176;43.240;27.880;2023-11-25T00:21:29;2.13;;;1.43;;
56269;SDS011;42176;43.240;27.880;2023-11-25T00:23:29;2.80;;;1.60;;
56269;SDS011;42176;43.240;27.880;2023-11-25T00:25:30;2.67;;;1.33;;
56269;SDS011;42176;43.240;27.880;2023-11-25T00:27:30;3.97;;;2.10;;
56269;SDS011;42176;43.240;27.880;2023-11-25T00:29:31;2.83;;;1.63;;
56269;SDS011;42176;43.240;27.880;2023-11-25T00:31:32;2.53;;;1.47;;
56269;SDS011;42176;43.240;27.880;2023-11-25T00:33:33;2.15;;;1.80;;
56269;SDS011;42176;43.240;27.880;2023-11-25T00:35:34;5.03;;;1.60;;
56269;SDS011;42176;43.240;27.880;2023-11-25T00:37:34;1.97;;;1.53;;
56269;SDS011;42176;43.240;27.880;2023-11-25T00:39:35;2.20;;;1.80;;
56269;SDS011;42176;43.240;27.880;2023-11-25T00:41:36;3.17;;;2.33;;
56269;SDS011;42176;43.240;27.880;2023-11-25T00:43:38;2.47;;;2.08;;
56269;SDS011;42176;43.240;27.880;2023-11-25T00:45:38;2.27;;;1.70;;
56269;SDS011;42176;43.240;27.880;2023-11-25T00:47:39;5.00;;;2.40;;
56269;SDS011;42176;43.240;27.880;2023-11-25T00:49:40;2.60;;;1.93;;
56269;SDS011;42176;43.240;27.880;2023-11-25T00:51:41;3.20;;;1.73;;
56269;SDS011;42176;43.240;27.880;2023-11-25T00:53:42;3.17;;;1.80;;
56269;SDS011;42176;43.240;27.880;2023-11-25T00:55:43;2.10;;;1.90;;
56269;SDS011;42176;43.240;27.880;2023-11-25T00:57:44;2.30;;;1.90;;
56269;SDS011;42176;43.240;27.880;2023-11-25T00:59:44;2.93;;;1.73;;
56269;SDS011;42176;43.240;27.880;2023-11-25T01:01:45;4.80;;;2.40;;
56269;SDS011;42176;43.240;27.880;2023-11-25T01:03:45;8.27;;;2.03;;
56269;SDS011;42176;43.240;27.880;2023-11-25T01:05:46;2.43;;;1.63;;
56269;SDS011;42176;43.240;27.880;2023-11-25T01:07:46;2.60;;;1.83;;
56269;SDS011;42176;43.240;27.880;2023-11-25T01:09:47;1.87;;;1.30;;
56269;SDS011;42176;43.240;27.880;2023-11-25T01:11:48;3.93;;;1.50;;
56269;SDS011;42176;43.240;27.880;2023-11-25T01:13:49;2.47;;;1.75;;
56269;SDS011;42176;43.240;27.880;2023-11-25T01:15:49;3.17;;;1.60;;
56269;SDS011;42176;43.240;27.880;2023-11-25T01:17:51;2.15;;;1.70;;
56269;SDS011;42176;43.240;27.880;2023-11-25T01:19:52;2.87;;;1.70;;
56269;SDS011;42176;43.240;27.880;2023-11-25T01:21:52;3.57;;;2.03;;
56269;SDS011;42176;43.240;27.880;2023-11-25T01:23:53;3.00;;;1.60;;
56269;SDS011;42176;43.240;27.880;2023-11-25T01:25:54;3.53;;;1.73;;
56269;SDS011;42176;43.240;27.880;2023-11-25T01:27:55;6.57;;;2.15;;
56269;SDS011;42176;43.240;27.880;2023-11-25T01:29:58;2.88;;;1.75;;
56269;SDS011;42176;43.240;27.880;2023-11-25T01:31:58;1.90;;;1.77;;
56269;SDS011;42176;43.240;27.880;2023-11-25T01:33:59;2.13;;;1.70;;
56269;SDS011;42176;43.240;27.880;2023-11-25T01:36:00;2.30;;;1.47;;
56269;SDS011;42176;43.240;27.880;2023-11-25T01:38:00;2.23;;;1.57;;
56269;SDS011;42176;43.240;27.880;2023-11-25T01:40:01;4.43;;;1.60;;
56269;SDS011;42176;43.240;27.880;2023-11-25T01:42:05;3.78;;;1.90;;
56269;SDS011;42176;43.240;27.880;2023-11-25T01:44:05;2.03;;;1.83;;
56269;SDS011;42176;43.240;27.880;2023-11-25T01:46:07;3.13;;;1.80;;
56269;SDS011;42176;43.240;27.880;2023-11-25T01:48:08;1.60;;;1.50;;
56269;SDS011;42176;43.240;27.880;2023-11-25T01:50:09;1.53;;;1.43;;
56269;SDS011;42176;43.240;27.880;2023-11-25T01:52:10;2.80;;;1.65;;
56269;SDS011;42176;43.240;27.880;2023-11-25T01:54:12;2.42;;;1.45;;
56269;SDS011;42176;43.240;27.880;2023-11-25T01:56:16;1.85;;;1.25;;
56269;SDS011;42176;43.240;27.880;2023-11-25T01:58:17;2.10;;;0.90;;
56269;SDS011;42176;43.240;27.880;2023-11-25T02:00:20;3.35;;;2.05;;
56269;SDS011;42176;43.240;27.880;2023-11-25T02:02:25;1.95;;;1.50;;
56269;SDS011;42176;43.240;27.880;2023-11-25T02:04:33;2.35;;;1.70;;
56269;SDS011;42176;43.240;27.880;2023-11-25T02:06:34;2.90;;;1.90;;
56269;SDS011;42176;43.240;27.880;2023-11-25T02:08:35;2.72;;;1.77;;
56269;SDS011;42176;43.240;27.880;2023-11-25T02:10:35;2.73;;;2.43;;
56269;SDS011;42176;43.240;27.880;2023-11-25T02:12:36;2.50;;;2.30;;
56269;SDS011;42176;43.240;27.880;2023-11-25T02:14:38;2.42;;;1.70;;
56269;SDS011;42176;43.240;27.880;2023-11-25T02:16:39;1.67;;;1.47;;
56269;SDS011;42176;43.240;27.880;2023-11-25T02:18:42;3.25;;;2.22;;
56269;SDS011;42176;43.240;27.880;2023-11-25T02:20:43;3.70;;;2.65;;
56269;SDS011;42176;43.240;27.880;2023-11-25T02:22:52;3.42;;;2.60;;
56269;SDS011;42176;43.240;27.880;2023-11-25T02:24:57;2.58;;;1.95;;
56269;SDS011;42176;43.240;27.880;2023-11-25T02:26:58;4.30;;;2.43;;
56269;SDS011;42176;43.240;27.880;2023-11-25T02:28:59;3.78;;;1.80;;
56269;SDS011;42176;43.240;27.880;2023-11-25T02:31:00;4.33;;;1.70;;
56269;SDS011;42176;43.240;27.880;2023-11-25T02:33:01;5.27;;;1.97;;
56269;SDS011;42176;43.240;27.880;2023-11-25T02:35:02;1.77;;;0.90;;
56269;SDS011;42176;43.240;27.880;2023-11-25T02:37:02;1.67;;;1.10;;
56269;SDS011;42176;43.240;27.880;2023-11-25T02:39:06;0.85;;;0.75;;
56269;SDS011;42176;43.240;27.880;2023-11-25T02:41:08;1.13;;;0.93;;
56269;SDS011;42176;43.240;27.880;2023-11-25T02:43:10;0.93;;;0.93;;
56269;SDS011;42176;43.240;27.880;2023-11-25T02:45:11;0.70;;;0.70;;
56269;SDS011;42176;43.240;27.880;2023-11-25T02:47:12;1.33;;;1.23;;
56269;SDS011;42176;43.240;27.880;2023-11-25T02:49:13;0.80;;;0.80;;
56269;SDS011;42176;43.240;27.880;2023-11-25T02:51:14;0.90;;;0.73;;
56269;SDS011;42176;43.240;27.880;2023-11-25T02:53:15;2.00;;;1.10;;
56269;SDS011;42176;43.240;27.880;2023-11-25T02:55:15;1.47;;;1.07;;
56269;SDS011;42176;43.240;27.880;2023-11-25T02:57:16;0.63;;;0.60;;
56269;SDS011;42176;43.240;27.880;2023-11-25T02:59:19;1.33;;;1.00;;
56269;SDS011;42176;43.240;27.880;2023-11-25T03:01:19;1.87;;;1.07;;
56269;SDS011;42176;43.240;27.880;2023-11-25T03:03:23;0.98;;;0.98;;
56269;SDS011;42176;43.240;27.880;2023-11-25T03:05:24;0.53;;;0.50;;
56269;SDS011;42176;43.240;27.880;2023-11-25T03:07:25;1.57;;;0.90;;
56269;SDS011;42176;43.240;27.880;2023-11-25T03:09:28;3.83;;;1.45;;
56269;SDS011;42176;43.240;27.880;2023-11-25T03:11:30;1.33;;;0.93;;
56269;SDS011;42176;43.240;27.880;2023-11-25T03:13:30;2.50;;;1.07;;
56269;SDS011;42176;43.240;27.880;2023-11-25T03:15:31;2.87;;;1.47;;
56269;SDS011;42176;43.240;27.880;2023-11-25T03:17:32;0.53;;;0.50;;
56269;SDS011;42176;43.240;27.880;2023-11-25T03:19:32;2.90;;;1.10;;
56269;SDS011;42176;43.240;27.880;2023-11-25T03:21:33;1.27;;;0.90;;
56269;SDS011;42176;43.240;27.880;2023-11-25T03:23:35;2.92;;;1.02;;
56269;SDS011;42176;43.240;27.880;2023-11-25T03:25:36;0.80;;;0.80;;
56269;SDS011;42176;43.240;27.880;2023-11-25T03:27:38;0.63;;;0.63;;
56269;SDS011;42176;43.240;27.880;2023-11-25T03:29:39;1.23;;;0.60;;
56269;SDS011;42176;43.240;27.880;2023-11-25T03:31:41;1.08;;;0.90;;
56269;SDS011;42176;43.240;27.880;2023-11-25T03:33:42;1.05;;;1.02;;
56269;SDS011;42176;43.240;27.880;2023-11-25T03:35:43;1.30;;;0.90;;
56269;SDS011;42176;43.240;27.880;2023-11-25T03:37:44;1.73;;;0.90;;
56269;SDS011;42176;43.240;27.880;2023-11-25T03:39:44;0.97;;;0.70;;
56269;SDS011;42176;43.240;27.880;2023-11-25T03:41:45;1.17;;;1.00;;
56269;SDS011;42176;43.240;27.880;2023-11-25T03:43:45;0.60;;;0.60;;
56269;SDS011;42176;43.240;27.880;2023-11-25T03:45:46;1.47;;;0.80;;
56269;SDS011;42176;43.240;27.880;2023-11-25T03:47:47;1.25;;;0.80;;
56269;SDS011;42176;43.240;27.880;2023-11-25T03:49:51;1.17;;;0.88;;
56269;SDS011;42176;43.240;27.880;2023-11-25T03:51:51;1.53;;;0.80;;
56269;SDS011;42176;43.240;27.880;2023-11-25T03:53:52;1.23;;;1.00;;
56269;SDS011;42176;43.240;27.880;2023-11-25T03:55:52;0.67;;;0.57;;
56269;SDS011;42176;43.240;27.880;2023-11-25T03:57:53;3.43;;;1.10;;
56269;SDS011;42176;43.240;27.880;2023-11-25T03:59:53;1.57;;;0.73;;
56269;SDS011;42176;43.240;27.880;2023-11-25T04:01:54;1.20;;;0.88;;
56269;SDS011;42176;43.240;27.880;2023-11-25T04:03:55;1.20;;;0.60;;
56269;SDS011;42176;43.240;27.880;2023-11-25T04:05:56;1.47;;;0.70;;
56269;SDS011;42176;43.240;27.880;2023-11-25T04:07:57;1.27;;;1.15;;
56269;SDS011;42176;43.240;27.880;2023-11-25T04:09:58;2.10;;;1.20;;
56269;SDS011;42176;43.240;27.880;2023-11-25T04:11:59;1.37;;;0.87;;
56269;SDS011;42176;43.240;27.880;2023-11-25T04:14:00;1.90;;;1.00;;
56269;SDS011;42176;43.240;27.880;2023-11-25T04:16:00;1.20;;;0.90;;
56269;SDS011;42176;43.240;27.880;2023-11-25T04:18:01;1.33;;;1.20;;
56269;SDS011;42176;43.240;27.880;2023-11-25T04:20:02;1.93;;;1.37;;
56269;SDS011;42176;43.240;27.880;2023-11-25T04:22:12;2.08;;;1.38;;
56269;SDS011;42176;43.240;27.880;2023-11-25T04:24:13;1.93;;;1.30;;
56269;SDS011;42176;43.240;27.880;2023-11-25T04:26:14;1.73;;;1.27;;
56269;SDS011;42176;43.240;27.880;2023-11-25T04:28:14;0.83;;;0.83;;
56269;SDS011;42176;43.240;27.880;2023-11-25T04:30:16;1.00;;;0.90;;
56269;SDS011;42176;43.240;27.880;2023-11-25T04:32:17;5.03;;;1.35;;
56269;SDS011;42176;43.240;27.880;2023-11-25T04:34:17;1.40;;;0.73;;
56269;SDS011;42176;43.240;27.880;2023-11-25T04:36:18;1.47;;;1.20;;
56269;SDS011;42176;43.240;27.880;2023-11-25T04:38:18;1.70;;;1.10;;
56269;SDS011;42176;43.240;27.880;2023-11-25T04:40:19;1.63;;;1.43;;
56269;SDS011;42176;43.240;27.880;2023-11-25T04:42:19;1.33;;;0.98;;
56269;SDS011;42176;43.240;27.880;2023-11-25T04:44:20;1.13;;;1.00;;
56269;SDS011;42176;43.240;27.880;2023-11-25T04:46:21;1.48;;;1.15;;
56269;SDS011;42176;43.240;27.880;2023-11-25T04:48:21;1.65;;;1.50;;
56269;SDS011;42176;43.240;27.880;2023-11-25T04:50:22;1.47;;;1.00;;
56269;SDS011;42176;43.240;27.880;2023-11-25T04:52:26;1.02;;;0.73;;
56269;SDS011;42176;43.240;27.880;2023-11-25T04:54:27;1.23;;;1.13;;
56269;SDS011;42176;43.240;27.880;2023-11-25T04:56:27;3.43;;;0.97;;
56269;SDS011;42176;43.240;27.880;2023-11-25T04:58:28;0.83;;;0.83;;
56269;SDS011;42176;43.240;27.880;2023-11-25T05:00:28;2.50;;;1.70;;
56269;SDS011;42176;43.240;27.880;2023-11-25T05:02:29;1.80;;;1.20;;
56269;SDS011;42176;43.240;27.880;2023-11-25T05:04:29;3.67;;;1.80;;
56269;SDS011;42176;43.240;27.880;2023-11-25T05:06:30;1.20;;;1.10;;
56269;SDS011;42176;43.240;27.880;2023-11-25T05:08:31;2.37;;;1.50;;
56269;SDS011;42176;43.240;27.880;2023-11-25T05:10:32;1.60;;;1.50;;
56269;SDS011;42176;43.240;27.880;2023-11-25T05:14:34;3.15;;;1.80;;
56269;SDS011;42176;43.240;27.880;2023-11-25T05:16:34;5.00;;;1.63;;
56269;SDS011;42176;43.240;27.880;2023-11-25T05:18:35;4.10;;;1.33;;
56269;SDS011;42176;43.240;27.880;2023-11-25T05:20:36;4.10;;;2.33;;
56269;SDS011;42176;43.240;27.880;2023-11-25T05:22:37;2.42;;;2.22;;
56269;SDS011;42176;43.240;27.880;2023-11-25T05:24:37;3.83;;;2.70;;
56269;SDS011;42176;43.240;27.880;2023-11-25T05:26:38;2.53;;;1.73;;
56269;SDS011;42176;43.240;27.880;2023-11-25T05:28:39;2.67;;;1.65;;
56269;SDS011;42176;43.240;27.880;2023-11-25T05:30:40;2.93;;;1.97;;
56269;SDS011;42176;43.240;27.880;2023-11-25T05:32:41;3.67;;;2.35;;
56269;SDS011;42176;43.240;27.880;2023-11-25T05:34:42;2.55;;;2.28;;
56269;SDS011;42176;43.240;27.880;2023-11-25T05:36:43;3.25;;;2.65;;
56269;SDS011;42176;43.240;27.880;2023-11-25T05:38:45;1.95;;;1.27;;
56269;SDS011;42176;43.240;27.880;2023-11-25T05:40:45;2.63;;;1.73;;
56269;SDS011;42176;43.240;27.880;2023-11-25T05:42:46;3.15;;;2.72;;
56269;SDS011;42176;43.240;27.880;2023-11-25T05:44:53;4.10;;;3.10;;
56269;SDS011;42176;43.240;27.880;2023-11-25T05:46:54;1.05;;;0.90;;
56269;SDS011;42176;43.240;27.880;2023-11-25T05:48:55;2.20;;;1.90;;
56269;SDS011;42176;43.240;27.880;2023-11-25T05:50:56;2.13;;;1.77;;
56269;SDS011;42176;43.240;27.880;2023-11-25T05:52:58;3.70;;;2.60;;
56269;SDS011;42176;43.240;27.880;2023-11-25T05:54:59;2.13;;;1.52;;
56269;SDS011;42176;43.240;27.880;2023-11-25T05:57:00;2.20;;;1.47;;
56269;SDS011;42176;43.240;27.880;2023-11-25T05:59:01;2.27;;;1.73;;
56269;SDS011;42176;43.240;27.880;2023-11-25T06:01:03;1.38;;;0.90;;
56269;SDS011;42176;43.240;27.880;2023-11-25T06:03:05;2.63;;;0.68;;
56269;SDS011;42176;43.240;27.880;2023-11-25T06:05:05;3.45;;;1.67;;
56269;SDS011;42176;43.240;27.880;2023-11-25T06:07:06;2.45;;;2.22;;
56269;SDS011;42176;43.240;27.880;2023-11-25T06:09:07;1.50;;;1.40;;
56269;SDS011;42176;43.240;27.880;2023-11-25T06:11:21;2.67;;;1.20;;
56269;SDS011;42176;43.240;27.880;2023-11-25T06:13:22;0.82;;;0.82;;
56269;SDS011;42176;43.240;27.880;2023-11-25T06:15:23;9.80;;;1.23;;
56269;SDS011;42176;43.240;27.880;2023-11-25T06:17:23;2.00;;;1.90;;
56269;SDS011;42176;43.240;27.880;2023-11-25T06:19:24;1.47;;;1.37;;
56269;SDS011;42176;43.240;27.880;2023-11-25T06:21:24;1.87;;;1.67;;
56269;SDS011;42176;43.240;27.880;2023-11-25T06:23:26;2.03;;;1.13;;
56269;SDS011;42176;43.240;27.880;2023-11-25T06:25:28;3.10;;;2.60;;
56269;SDS011;42176;43.240;27.880;2023-11-25T06:29:29;4.28;;;2.88;;
56269;SDS011;42176;43.240;27.880;2023-11-25T06:31:29;2.97;;;2.03;;
56269;SDS011;42176;43.240;27.880;2023-11-25T06:33:33;1.50;;;1.40;;
56269;SDS011;42176;43.240;27.880;2023-11-25T06:35:33;1.70;;;0.97;;
56269;SDS011;42176;43.240;27.880;2023-11-25T06:37:37;2.15;;;1.50;;
56269;SDS011;42176;43.240;27.880;2023-11-25T06:39:39;1.95;;;1.67;;
56269;SDS011;42176;43.240;27.880;2023-11-25T06:41:43;1.67;;;1.33;;
56269;SDS011;42176;43.240;27.880;2023-11-25T06:43:49;1.42;;;1.33;;
56269;SDS011;42176;43.240;27.880;2023-11-25T06:45:50;0.85;;;0.85;;
56269;SDS011;42176;43.240;27.880;2023-11-25T06:47:51;0.57;;;0.52;;
56269;SDS011;42176;43.240;27.880;2023-11-25T06:49:54;1.40;;;1.30;;
56269;SDS011;42176;43.240;27.880;2023-11-25T06:51:55;1.53;;;1.43;;
56269;SDS011;42176;43.240;27.880;2023-11-25T06:53:58;1.35;;;1.25;;
56269;SDS011;42176;43.240;27.880;2023-11-25T06:55:58;2.23;;;1.80;;
56269;SDS011;42176;43.240;27.880;2023-11-25T06:57:59;2.30;;;2.10;;
56269;SDS011;42176;43.240;27.880;2023-11-25T07:00:00;2.53;;;1.83;;
56269;SDS011;42176;43.240;27.880;2023-11-25T07:02:02;1.75;;;1.58;;
56269;SDS011;42176;43.240;27.880;2023-11-25T07:04:04;2.10;;;1.90;;
56269;SDS011;42176;43.240;27.880;2023-11-25T07:06:04;1.33;;;1.17;;
56269;SDS011;42176;43.240;27.880;2023-11-25T07:08:05;2.20;;;1.53;;
56269;SDS011;42176;43.240;27.880;2023-11-25T07:10:06;1.60;;;1.40;;
56269;SDS011;42176;43.240;27.880;2023-11-25T07:12:10;1.98;;;1.50;;
56269;SDS011;42176;43.240;27.880;2023-11-25T07:14:15;1.88;;;1.35;;
56269;SDS011;42176;43.240;27.880;2023-11-25T07:16:15;0.83;;;0.83;;
56269;SDS011;42176;43.240;27.880;2023-11-25T07:18:16;3.07;;;0.93;;
56269;SDS011;42176;43.240;27.880;2023-11-25T07:20:19;2.15;;;0.77;;
56269;SDS011;42176;43.240;27.880;2023-11-25T07:22:19;1.43;;;0.97;;
56269;SDS011;42176;43.240;27.880;2023-11-25T07:24:20;5.07;;;1.73;;
56269;SDS011;42176;43.240;27.880;2023-11-25T07:26:27;4.05;;;2.40;;
56269;SDS011;42176;43.240;27.880;2023-11-25T07:28:28;4.65;;;3.40;;
56269;SDS011;42176;43.240;27.880;2023-11-25T07:30:29;7.23;;;4.57;;
56269;SDS011;42176;43.240;27.880;2023-11-25T07:32:30;6.63;;;3.30;;
56269;SDS011;42176;43.240;27.880;2023-11-25T07:34:32;5.32;;;2.53;;
56269;SDS011;42176;43.240;27.880;2023-11-25T07:36:32;1.80;;;1.70;;
56269;SDS011;42176;43.240;27.880;2023-11-25T07:38:33;3.60;;;1.97;;
56269;SDS011;42176;43.240;27.880;2023-11-25T07:40:34;6.23;;;3.00;;
56269;SDS011;42176;43.240;27.880;2023-11-25T07:42:34;5.07;;;2.07;;
56269;SDS011;42176;43.240;27.880;2023-11-25T07:44:35;1.73;;;1.55;;
56269;SDS011;42176;43.240;27.880;2023-11-25T07:46:36;2.40;;;1.70;;
56269;SDS011;42176;43.240;27.880;2023-11-25T07:48:36;1.83;;;1.67;;
56269;SDS011;42176;43.240;27.880;2023-11-25T07:50:37;2.30;;;2.00;;
56269;SDS011;42176;43.240;27.880;2023-11-25T07:52:40;3.08;;;2.78;;
56269;SDS011;42176;43.240;27.880;2023-11-25T07:54:41;3.43;;;2.33;;
56269;SDS011;42176;43.240;27.880;2023-11-25T07:56:42;1.23;;;1.13;;
56269;SDS011;42176;43.240;27.880;2023-11-25T07:58:43;1.52;;;1.40;;
56269;SDS011;42176;43.240;27.880;2023-11-25T08:00:43;1.67;;;1.50;;
56269;SDS011;42176;43.240;27.880;2023-11-25T08:02:44;5.47;;;2.40;;
56269;SDS011;42176;43.240;27.880;2023-11-25T08:04:45;2.17;;;1.38;;
56269;SDS011;42176;43.240;27.880;2023-11-25T08:06:46;3.77;;;2.70;;
56269;SDS011;42176;43.240;27.880;2023-11-25T08:08:47;2.97;;;2.47;;
56269;SDS011;42176;43.240;27.880;2023-11-25T08:10:48;7.13;;;2.90;;
56269;SDS011;42176;43.240;27.880;2023-11-25T08:12:49;2.90;;;2.43;;
56269;SDS011;42176;43.240;27.880;2023-11-25T08:14:49;3.03;;;2.07;;
56269;SDS011;42176;43.240;27.880;2023-11-25T08:16:50;2.13;;;1.93;;
56269;SDS011;42176;43.240;27.880;2023-11-25T08:18:52;3.83;;;2.57;;
56269;SDS011;42176;43.240;27.880;2023-11-25T08:22:53;1.73;;;1.50;;
56269;SDS011;42176;43.240;27.880;2023-11-25T08:25:12;4.90;;;2.13;;
56269;SDS011;42176;43.240;27.880;2023-11-25T08:27:13;3.20;;;2.73;;
56269;SDS011;42176;43.240;27.880;2023-11-25T08:29:14;5.55;;;2.42;;
56269;SDS011;42176;43.240;27.880;2023-11-25T08:31:15;3.40;;;2.50;;
56269;SDS011;42176;43.240;27.880;2023-11-25T08:33:17;5.00;;;2.92;;
56269;SDS011;42176;43.240;27.880;2023-11-25T08:35:17;4.73;;;2.87;;
56269;SDS011;42176;43.240;27.880;2023-11-25T08:37:18;3.97;;;2.73;;
56269;SDS011;42176;43.240;27.880;2023-11-25T08:39:24;4.22;;;2.13;;
56269;SDS011;42176;43.240;27.880;2023-11-25T08:41:25;4.75;;;2.97;;
56269;SDS011;42176;43.240;27.880;2023-11-25T08:43:26;3.67;;;2.60;;
56269;SDS011;42176;43.240;27.880;2023-11-25T08:45:29;6.50;;;3.63;;
56269;SDS011;42176;43.240;27.880;2023-11-25T08:47:29;1.93;;;1.20;;
56269;SDS011;42176;43.240;27.880;2023-11-25T08:49:33;1.30;;;1.20;;
56269;SDS011;42176;43.240;27.880;2023-11-25T08:51:33;1.77;;;1.15;;
56269;SDS011;42176;43.240;27.880;2023-11-25T08:53:34;2.37;;;1.53;;
56269;SDS011;42176;43.240;27.880;2023-11-25T08:55:35;1.93;;;1.70;;
56269;SDS011;42176;43.240;27.880;2023-11-25T08:57:35;2.90;;;1.40;;
56269;SDS011;42176;43.240;27.880;2023-11-25T08:59:36;1.20;;;0.85;;
56269;SDS011;42176;43.240;27.880;2023-11-25T09:01:37;2.17;;;1.30;;
56269;SDS011;42176;43.240;27.880;2023-11-25T09:03:39;1.45;;;1.20;;
56269;SDS011;42176;43.240;27.880;2023-11-25T09:05:40;2.23;;;1.30;;
56269;SDS011;42176;43.240;27.880;2023-11-25T09:07:41;12.77;;;9.30;;
56269;SDS011;42176;43.240;27.880;2023-11-25T09:09:42;14.13;;;9.07;;
56269;SDS011;42176;43.240;27.880;2023-11-25T09:11:46;11.63;;;8.27;;
56269;SDS011;42176;43.240;27.880;2023-11-25T09:13:48;5.38;;;3.22;;
56269;SDS011;42176;43.240;27.880;2023-11-25T09:15:48;4.73;;;3.20;;
56269;SDS011;42176;43.240;27.880;2023-11-25T09:17:50;6.72;;;4.40;;
56269;SDS011;42176;43.240;27.880;2023-11-25T09:19:54;8.38;;;3.72;;
56269;SDS011;42176;43.240;27.880;2023-11-25T09:21:54;3.10;;;1.93;;
56269;SDS011;42176;43.240;27.880;2023-11-25T09:23:55;9.07;;;4.03;;
56269;SDS011;42176;43.240;27.880;2023-11-25T09:25:55;6.83;;;4.07;;
56269;SDS011;42176;43.240;27.880;2023-11-25T09:27:56;5.90;;;4.17;;
56269;SDS011;42176;43.240;27.880;2023-11-25T09:29:57;7.03;;;3.57;;
56269;SDS011;42176;43.240;27.880;2023-11-25T09:31:58;3.22;;;2.22;;
56269;SDS011;42176;43.240;27.880;2023-11-25T09:33:59;3.93;;;2.70;;
56269;SDS011;42176;43.240;27.880;2023-11-25T09:36:02;10.60;;;6.75;;
56269;SDS011;42176;43.240;27.880;2023-11-25T09:38:03;16.37;;;11.10;;
56269;SDS011;42176;43.240;27.880;2023-11-25T09:40:04;7.47;;;5.00;;
56269;SDS011;42176;43.240;27.880;2023-11-25T09:44:06;1.75;;;0.95;;
56269;SDS011;42176;43.240;27.880;2023-11-25T09:48:09;0.90;;;0.60;;
56269;SDS011;42176;43.240;27.880;2023-11-25T09:50:10;0.38;;;0.38;;
56269;SDS011;42176;43.240;27.880;2023-11-25T09:52:13;0.52;;;0.20;;
56269;SDS011;42176;43.240;27.880;2023-11-25T09:54:21;0.20;;;0.20;;
56269;SDS011;42176;43.240;27.880;2023-11-25T09:56:22;0.00;;;0.00;;
56269;SDS011;42176;43.240;27.880;2023-11-25T09:58:23;0.00;;;0.00;;
56269;SDS011;42176;43.240;27.880;2023-11-25T10:00:24;0.00;;;0.00;;
56269;SDS011;42176;43.240;27.880;2023-11-25T10:02:27;0.00;;;0.00;;
56269;SDS011;42176;43.240;27.880;2023-11-25T10:04:33;0.00;;;0.00;;
56269;SDS011;42176;43.240;27.880;2023-11-25T10:06:36;0.00;;;0.00;;
56269;SDS011;42176;43.240;27.880;2023-11-25T10:08:38;0.00;;;0.00;;
56269;SDS011;42176;43.240;27.880;2023-11-25T10:10:38;0.00;;;0.00;;
56269;SDS011;42176;43.240;27.880;2023-11-25T10:12:42;0.00;;;0.00;;
56269;SDS011;42176;43.240;27.880;2023-11-25T10:14:43;0.00;;;0.00;;
56269;SDS011;42176;43.240;27.880;2023-11-25T10:16:44;0.00;;;0.00;;
56269;SDS011;42176;43.240;27.880;2023-11-25T10:18:46;0.00;;;0.00;;
56269;SDS011;42176;43.240;27.880;2023-11-25T10:20:46;2.80;;;2.43;;
56269;SDS011;42176;43.240;27.880;2023-11-25T10:22:52;0.00;;;0.00;;
56269;SDS011;42176;43.240;27.880;2023-11-25T10:24:59;0.00;;;0.00;;
56269;SDS011;42176;43.240;27.880;2023-11-25T10:27:01;0.60;;;0.60;;
56269;SDS011;42176;43.240;27.880;2023-11-25T10:29:02;0.00;;;0.00;;
56269;SDS011;42176;43.240;27.880;2023-11-25T10:31:03;0.00;;;0.00;;
56269;SDS011;42176;43.240;27.880;2023-11-25T10:33:06;0.00;;;0.00;;
56269;SDS011;42176;43.240;27.880;2023-11-25T10:35:07;0.00;;;0.00;;
56269;SDS011;42176;43.240;27.880;2023-11-25T10:37:12;0.00;;;0.00;;
56269;SDS011;42176;43.240;27.880;2023-11-25T10:39:12;0.00;;;0.00;;
56269;SDS011;42176;43.240;27.880;2023-11-25T10:41:17;0.00;;;0.00;;
56269;SDS011;42176;43.240;27.880;2023-11-25T10:43:18;0.00;;;0.00;;
56269;SDS011;42176;43.240;27.880;2023-11-25T10:45:21;0.00;;;0.00;;
56269;SDS011;42176;43.240;27.880;2023-11-25T10:47:32;0.00;;;0.00;;
56269;SDS011;42176;43.240;27.880;2023-11-25T10:49:35;0.00;;;0.00;;
56269;SDS011;42176;43.240;27.880;2023-11-25T10:51:39;0.00;;;0.00;;
56269;SDS011;42176;43.240;27.880;2023-11-25T10:53:40;0.00;;;0.00;;
56269;SDS011;42176;43.240;27.880;2023-11-25T10:55:45;0.00;;;0.00;;
56269;SDS011;42176;43.240;27.880;2023-11-25T10:57:47;0.00;;;0.00;;
56269;SDS011;42176;43.240;27.880;2023-11-25T10:59:50;0.00;;;0.00;;
56269;SDS011;42176;43.240;27.880;2023-11-25T11:01:56;0.00;;;0.00;;
56269;SDS011;42176;43.240;27.880;2023-11-25T11:04:02;0.00;;;0.00;;
56269;SDS011;42176;43.240;27.880;2023-11-25T11:06:10;0.00;;;0.00;;
56269;SDS011;42176;43.240;27.880;2023-11-25T11:08:18;0.00;;;0.00;;
56269;SDS011;42176;43.240;27.880;2023-11-25T11:10:25;0.00;;;0.00;;
56269;SDS011;42176;43.240;27.880;2023-11-25T11:12:33;0.00;;;0.00;;
56269;SDS011;42176;43.240;27.880;2023-11-25T11:14:39;0.00;;;0.00;;
56269;SDS011;42176;43.240;27.880;2023-11-25T11:16:48;0.00;;;0.00;;
56269;SDS011;42176;43.240;27.880;2023-11-25T11:19:04;0.00;;;0.00;;
56269;SDS011;42176;43.240;27.880;2023-11-25T11:21:09;0.00;;;0.00;;
56269;SDS011;42176;43.240;27.880;2023-11-25T11:23:15;0.00;;;0.00;;
56269;SDS011;42176;43.240;27.880;2023-11-25T11:25:26;0.10;;;0.10;;
56269;SDS011;42176;43.240;27.880;2023-11-25T11:27:46;0.00;;;0.00;;
56269;SDS011;42176;43.240;27.880;2023-11-25T11:30:18;0.15;;;0.15;;
56269;SDS011;42176;43.240;27.880;2023-11-25T11:32:21;0.00;;;0.00;;
56269;SDS011;42176;43.240;27.880;2023-11-25T11:34:30;0.00;;;0.00;;
56269;SDS011;42176;43.240;27.880;2023-11-25T11:36:33;0.00;;;0.00;;
56269;SDS011;42176;43.240;27.880;2023-11-25T11:38:35;0.00;;;0.00;;
56269;SDS011;42176;43.240;27.880;2023-11-25T11:40:43;0.00;;;0.00;;
56269;SDS011;42176;43.240;27.880;2023-11-25T11:42:45;0.00;;;0.00;;
56269;SDS011;42176;43.240;27.880;2023-11-25T11:44:59;0.00;;;0.00;;
56269;SDS011;42176;43.240;27.880;2023-11-25T11:47:25;0.00;;;0.00;;
56269;SDS011;42176;43.240;27.880;2023-11-25T11:49:26;0.00;;;0.00;;
56269;SDS011;42176;43.240;27.880;2023-11-25T11:51:31;0.00;;;0.00;;
56269;SDS011;42176;43.240;27.880;2023-11-25T11:53:33;0.00;;;0.00;;
56269;SDS011;42176;43.240;27.880;2023-11-25T11:55:34;0.00;;;0.00;;
56269;SDS011;42176;43.240;27.880;2023-11-25T12:00:05;0.00;;;0.00;;
56269;SDS011;42176;43.240;27.880;2023-11-25T12:02:12;0.15;;;0.15;;
56269;SDS011;42176;43.240;27.880;2023-11-25T12:04:12;0.00;;;0.00;;
56269;SDS011;42176;43.240;27.880;2023-11-25T12:06:13;0.00;;;0.00;;
56269;SDS011;42176;43.240;27.880;2023-11-25T12:08:17;2.58;;;0.73;;
56269;SDS011;42176;43.240;27.880;2023-11-25T12:10:18;2.92;;;0.30;;
56269;SDS011;42176;43.240;27.880;2023-11-25T12:12:19;1.73;;;0.90;;
56269;SDS011;42176;43.240;27.880;2023-11-25T12:14:21;0.50;;;0.50;;
56269;SDS011;42176;43.240;27.880;2023-11-25T12:16:23;0.55;;;0.55;;